createdAt,value
2017-09-22T00:00:39.691Z,100
2017-09-22T00:01:42.089Z,100
2017-09-22T00:02:44.482Z,100
2017-09-22T00:03:46.884Z,100
2017-09-22T00:04:49.273Z,100
2017-09-22T00:05:51.668Z,100
2017-09-22T00:06:54.402Z,100
2017-09-22T00:07:56.797Z,100
2017-09-22T00:08:59.197Z,100
2017-09-22T00:10:01.587Z,100
2017-09-22T00:11:04.309Z,100
2017-09-22T00:12:06.707Z,100
2017-09-22T00:13:09.095Z,100
2017-09-22T00:14:11.485Z,100
2017-09-22T00:15:13.881Z,100
2017-09-22T00:16:16.606Z,100
2017-09-22T00:17:19.331Z,100
2017-09-22T00:18:21.733Z,100
2017-09-22T00:19:24.122Z,100
2017-09-22T00:20:26.855Z,100
2017-09-22T00:21:29.246Z,100
2017-09-22T00:22:31.648Z,100
2017-09-22T00:23:34.036Z,100
2017-09-22T00:24:36.426Z,100
2017-09-22T00:25:38.821Z,100
2017-09-22T00:26:41.209Z,100
2017-09-22T00:27:43.603Z,100
2017-09-22T00:28:46.007Z,100
2017-09-22T00:29:48.386Z,100
2017-09-22T00:30:50.781Z,100
2017-09-22T00:31:53.542Z,100
2017-09-22T00:32:55.931Z,100
2017-09-22T00:33:58.329Z,100
2017-09-22T00:35:00.717Z,100
2017-09-22T00:36:03.094Z,100
2017-09-22T00:37:05.498Z,100
2017-09-22T00:38:07.890Z,100
2017-09-22T00:39:10.277Z,100
2017-09-22T00:40:12.676Z,100
2017-09-22T00:41:15.069Z,100
2017-09-22T00:42:17.457Z,100
2017-09-22T00:43:19.860Z,100
2017-09-22T00:44:22.243Z,100
2017-09-22T00:45:24.630Z,100
2017-09-22T00:46:27.028Z,100
2017-09-22T00:47:29.414Z,100
2017-09-22T00:48:31.805Z,100
2017-09-22T00:49:34.206Z,100
2017-09-22T00:50:36.938Z,100
2017-09-22T00:51:39.336Z,100
2017-09-22T00:52:41.724Z,100
2017-09-22T00:53:44.251Z,100
2017-09-22T00:54:46.645Z,100
2017-09-22T00:55:49.052Z,100
2017-09-22T00:56:51.777Z,100
2017-09-22T00:57:54.508Z,100
2017-09-22T00:58:56.901Z,100
2017-09-22T00:59:59.293Z,100
2017-09-22T01:01:01.695Z,100
2017-09-22T01:02:04.428Z,100
2017-09-22T01:03:06.813Z,100
2017-09-22T01:04:09.548Z,100
2017-09-22T01:05:11.941Z,100
2017-09-22T01:06:14.333Z,100
2017-09-22T01:07:16.730Z,100
2017-09-22T01:08:19.118Z,100
2017-09-22T01:09:21.505Z,100
2017-09-22T01:10:23.909Z,100
2017-09-22T01:11:26.302Z,100
2017-09-22T01:12:28.696Z,100
2017-09-22T01:13:31.092Z,100
2017-09-22T01:14:33.481Z,100
2017-09-22T01:15:35.866Z,100
2017-09-22T01:16:38.264Z,100
2017-09-22T01:17:40.651Z,100
2017-09-22T01:18:43.380Z,100
2017-09-22T01:19:45.778Z,100
2017-09-22T01:20:48.504Z,100
2017-09-22T01:21:50.894Z,100
2017-09-22T01:22:53.283Z,100
2017-09-22T01:23:55.675Z,100
2017-09-22T01:24:58.410Z,100
2017-09-22T01:26:00.794Z,100
2017-09-22T01:27:03.537Z,100
2017-09-22T01:28:05.920Z,100
2017-09-22T01:29:08.318Z,100
2017-09-22T01:30:10.714Z,100
2017-09-22T01:31:13.105Z,100
2017-09-22T01:32:15.492Z,100
2017-09-22T01:33:17.893Z,100
2017-09-22T01:34:20.279Z,100
2017-09-22T01:35:22.676Z,100
2017-09-22T01:36:25.060Z,100
2017-09-22T01:37:27.496Z,100
2017-09-22T01:38:29.894Z,100
2017-09-22T01:39:32.288Z,100
2017-09-22T01:40:34.678Z,100
2017-09-22T01:41:37.431Z,100
2017-09-22T01:42:39.821Z,100
2017-09-22T01:43:42.222Z,100
2017-09-22T01:44:44.611Z,100
2017-09-22T01:45:46.992Z,100
2017-09-22T01:46:49.382Z,100
2017-09-22T01:47:51.773Z,100
2017-09-22T01:48:54.172Z,100
2017-09-22T01:49:56.563Z,100
2017-09-22T01:50:58.966Z,100
2017-09-22T01:52:01.348Z,100
2017-09-22T01:53:03.749Z,100
2017-09-22T01:54:06.472Z,100
2017-09-22T01:55:08.863Z,100
2017-09-22T01:56:11.256Z,100
2017-09-22T01:57:13.650Z,100
2017-09-22T01:58:16.035Z,100
2017-09-22T01:59:18.432Z,100
2017-09-22T02:00:21.494Z,100
2017-09-22T02:01:23.886Z,100
2017-09-22T02:02:26.275Z,100
2017-09-22T02:03:28.659Z,100
2017-09-22T02:04:31.050Z,100
2017-09-22T02:05:34.131Z,100
2017-09-22T02:06:36.520Z,100
2017-09-22T02:07:38.910Z,100
2017-09-22T02:08:41.300Z,100
2017-09-22T02:09:43.699Z,100
2017-09-22T02:10:46.094Z,100
2017-09-22T02:11:48.483Z,100
2017-09-22T02:12:50.865Z,100
2017-09-22T02:13:53.259Z,100
2017-09-22T02:14:55.645Z,100
2017-09-22T02:15:58.036Z,100
2017-09-22T02:17:00.419Z,100
2017-09-22T02:18:02.809Z,100
2017-09-22T02:19:05.209Z,100
2017-09-22T02:20:07.591Z,100
2017-09-22T02:21:10.321Z,100
2017-09-22T02:22:12.713Z,100
2017-09-22T02:23:15.106Z,100
2017-09-22T02:24:17.484Z,100
2017-09-22T02:25:19.881Z,100
2017-09-22T02:26:22.275Z,100
2017-09-22T02:27:24.666Z,100
2017-09-22T02:28:27.060Z,100
2017-09-22T02:29:29.453Z,100
2017-09-22T02:30:31.837Z,100
2017-09-22T02:31:34.238Z,100
2017-09-22T02:32:36.659Z,100
2017-09-22T02:33:39.012Z,100
2017-09-22T02:34:41.408Z,100
2017-09-22T02:35:44.504Z,100
2017-09-22T02:36:46.893Z,100
2017-09-22T02:37:49.282Z,100
2017-09-22T02:38:51.675Z,100
2017-09-22T02:39:54.071Z,100
2017-09-22T02:40:56.463Z,100
2017-09-22T02:41:58.851Z,100
2017-09-22T02:43:01.247Z,100
2017-09-22T02:44:03.639Z,100
2017-09-22T02:45:06.369Z,100
2017-09-22T02:46:08.758Z,100
2017-09-22T02:47:11.150Z,100
2017-09-22T02:48:13.546Z,100
2017-09-22T02:49:15.934Z,100
2017-09-22T02:50:18.325Z,100
2017-09-22T02:51:21.052Z,100
2017-09-22T02:52:23.444Z,100
2017-09-22T02:53:25.830Z,100
2017-09-22T02:54:28.564Z,100
2017-09-22T02:55:31.292Z,100
2017-09-22T02:56:33.682Z,100
2017-09-22T02:57:36.073Z,100
2017-09-22T02:58:38.468Z,100
2017-09-22T02:59:40.856Z,100
2017-09-22T03:00:43.256Z,100
2017-09-22T03:01:45.643Z,100
2017-09-22T03:02:48.033Z,100
2017-09-22T03:03:51.102Z,100
2017-09-22T03:04:53.494Z,100
2017-09-22T03:05:55.876Z,100
2017-09-22T03:06:58.274Z,100
2017-09-22T03:08:00.663Z,100
2017-09-22T03:09:03.398Z,100
2017-09-22T03:10:05.792Z,100
2017-09-22T03:11:08.181Z,100
2017-09-22T03:12:10.572Z,100
2017-09-22T03:13:12.969Z,100
2017-09-22T03:14:15.359Z,100
2017-09-22T03:15:17.749Z,100
2017-09-22T03:16:20.134Z,100
2017-09-22T03:17:22.524Z,100
2017-09-22T03:18:24.915Z,100
2017-09-22T03:19:27.308Z,100
2017-09-22T03:20:29.699Z,100
2017-09-22T03:21:32.091Z,100
2017-09-22T03:22:34.481Z,100
2017-09-22T03:23:36.863Z,100
2017-09-22T03:24:39.253Z,100
2017-09-22T03:25:41.653Z,100
2017-09-22T03:26:44.386Z,100
2017-09-22T03:27:46.774Z,100
2017-09-22T03:28:49.158Z,100
2017-09-22T03:29:51.554Z,100
2017-09-22T03:30:53.947Z,100
2017-09-22T03:31:56.690Z,100
2017-09-22T03:32:59.067Z,100
2017-09-22T03:34:01.816Z,100
2017-09-22T03:35:04.203Z,100
2017-09-22T03:36:06.605Z,100
2017-09-22T03:37:08.999Z,100
2017-09-22T03:38:11.379Z,100
2017-09-22T03:39:13.775Z,100
2017-09-22T03:40:16.509Z,100
2017-09-22T03:41:18.898Z,100
2017-09-22T03:42:21.623Z,100
2017-09-22T03:43:24.362Z,100
2017-09-22T03:44:26.754Z,100
2017-09-22T03:45:29.490Z,100
2017-09-22T03:46:31.884Z,100
2017-09-22T03:47:34.261Z,100
2017-09-22T03:48:36.658Z,100
2017-09-22T03:49:39.060Z,100
2017-09-22T03:50:41.445Z,100
2017-09-22T03:51:43.830Z,100
2017-09-22T03:52:46.220Z,100
2017-09-22T03:53:48.607Z,100
2017-09-22T03:54:51.000Z,100
2017-09-22T03:55:53.395Z,100
2017-09-22T03:56:55.776Z,100
2017-09-22T03:57:58.189Z,100
2017-09-22T03:59:00.586Z,100
2017-09-22T04:00:02.974Z,100
2017-09-22T04:01:05.359Z,100
2017-09-22T04:02:07.756Z,100
2017-09-22T04:03:10.137Z,100
2017-09-22T04:04:12.880Z,100
2017-09-22T04:05:15.274Z,100
2017-09-22T04:06:17.659Z,100
2017-09-22T04:07:20.049Z,100
2017-09-22T04:08:22.442Z,100
2017-09-22T04:09:24.832Z,100
2017-09-22T04:10:27.225Z,100
2017-09-22T04:11:29.970Z,100
2017-09-22T04:12:32.360Z,100
2017-09-22T04:13:34.762Z,100
2017-09-22T04:14:37.153Z,100
2017-09-22T04:15:39.545Z,100
2017-09-22T04:16:42.279Z,100
2017-09-22T04:17:44.671Z,100
2017-09-22T04:18:47.067Z,100
2017-09-22T04:19:49.793Z,100
2017-09-22T04:20:52.188Z,100
2017-09-22T04:21:54.923Z,100
2017-09-22T04:22:57.312Z,100
2017-09-22T04:23:59.704Z,100
2017-09-22T04:25:02.112Z,100
2017-09-22T04:26:04.502Z,100
2017-09-22T04:27:06.903Z,100
2017-09-22T04:28:09.296Z,100
2017-09-22T04:29:11.679Z,100
2017-09-22T04:30:14.074Z,100
2017-09-22T04:31:16.471Z,100
2017-09-22T04:32:18.853Z,100
2017-09-22T04:33:21.247Z,100
2017-09-22T04:34:23.640Z,100
2017-09-22T04:35:26.029Z,100
2017-09-22T04:36:28.766Z,100
2017-09-22T04:37:31.157Z,100
2017-09-22T04:38:33.542Z,100
2017-09-22T04:39:35.947Z,100
2017-09-22T04:40:38.333Z,100
2017-09-22T04:41:40.726Z,100
2017-09-22T04:42:43.460Z,100
2017-09-22T04:43:45.853Z,100
2017-09-22T04:44:48.254Z,100
2017-09-22T04:45:50.988Z,100
2017-09-22T04:46:53.367Z,100
2017-09-22T04:47:55.759Z,100
2017-09-22T04:48:58.156Z,100
2017-09-22T04:50:00.544Z,100
2017-09-22T04:51:03.287Z,100
2017-09-22T04:52:05.679Z,100
2017-09-22T04:53:08.074Z,100
2017-09-22T04:54:10.804Z,100
2017-09-22T04:55:13.190Z,100
2017-09-22T04:56:15.584Z,100
2017-09-22T04:57:17.976Z,100
2017-09-22T04:58:20.359Z,100
2017-09-22T04:59:23.087Z,100
2017-09-22T05:00:25.819Z,100
2017-09-22T05:01:28.214Z,100
2017-09-22T05:02:30.611Z,100
2017-09-22T05:03:33.001Z,100
2017-09-22T05:04:35.392Z,100
2017-09-22T05:05:37.792Z,100
2017-09-22T05:06:40.185Z,100
2017-09-22T05:07:42.579Z,100
2017-09-22T05:08:44.976Z,100
2017-09-22T05:09:47.705Z,100
2017-09-22T05:10:50.099Z,100
2017-09-22T05:11:52.496Z,100
2017-09-22T05:12:54.877Z,100
2017-09-22T05:13:57.268Z,100
2017-09-22T05:14:59.661Z,100
2017-09-22T05:16:02.051Z,100
2017-09-22T05:17:04.442Z,100
2017-09-22T05:18:06.836Z,100
2017-09-22T05:19:09.233Z,100
2017-09-22T05:20:11.626Z,100
2017-09-22T05:21:14.008Z,100
2017-09-22T05:22:16.408Z,100
2017-09-22T05:23:18.794Z,100
2017-09-22T05:24:21.181Z,100
2017-09-22T05:25:23.575Z,100
2017-09-22T05:26:25.968Z,100
2017-09-22T05:27:28.362Z,100
2017-09-22T05:28:30.760Z,100
2017-09-22T05:29:33.138Z,100
2017-09-22T05:30:36.206Z,100
2017-09-22T05:31:38.948Z,100
2017-09-22T05:32:41.337Z,100
2017-09-22T05:33:44.063Z,100
2017-09-22T05:34:46.450Z,100
2017-09-22T05:35:48.835Z,100
2017-09-22T05:36:51.240Z,100
2017-09-22T05:37:53.627Z,100
2017-09-22T05:38:56.014Z,100
2017-09-22T05:39:58.405Z,100
2017-09-22T05:41:00.795Z,100
2017-09-22T05:42:03.185Z,100
2017-09-22T05:43:05.585Z,100
2017-09-22T05:44:07.970Z,100
2017-09-22T05:45:10.706Z,100
2017-09-22T05:46:13.446Z,100
2017-09-22T05:47:15.837Z,100
2017-09-22T05:48:18.225Z,100
2017-09-22T05:49:21.896Z,100
2017-09-22T05:50:27.224Z,100
2017-09-22T05:51:29.612Z,100
2017-09-22T05:52:31.996Z,100
2017-09-22T05:53:34.399Z,100
2017-09-22T05:54:37.115Z,100
2017-09-22T05:55:39.514Z,100
2017-09-22T05:56:41.904Z,100
2017-09-22T05:57:44.299Z,100
2017-09-22T05:58:46.682Z,100
2017-09-22T05:59:49.079Z,100
2017-09-22T06:00:51.489Z,100
2017-09-22T06:01:53.958Z,100
2017-09-22T06:02:56.345Z,100
2017-09-22T06:03:59.094Z,100
2017-09-22T06:05:01.482Z,100
2017-09-22T06:06:03.880Z,100
2017-09-22T06:07:06.613Z,100
2017-09-22T06:08:09.018Z,100
2017-09-22T06:09:11.741Z,100
2017-09-22T06:10:14.135Z,100
2017-09-22T06:11:17.196Z,100
2017-09-22T06:12:19.924Z,100
2017-09-22T06:13:22.313Z,100
2017-09-22T06:14:24.750Z,100
2017-09-22T06:15:27.165Z,100
2017-09-22T06:16:29.560Z,100
2017-09-22T06:17:31.955Z,100
2017-09-22T06:18:34.345Z,100
2017-09-22T06:19:36.727Z,100
2017-09-22T06:20:39.117Z,100
2017-09-22T06:21:41.508Z,100
2017-09-22T06:22:43.899Z,100
2017-09-22T06:23:46.295Z,100
2017-09-22T06:24:48.686Z,100
2017-09-22T06:25:51.078Z,100
2017-09-22T06:26:53.473Z,100
2017-09-22T06:27:55.865Z,100
2017-09-22T06:28:58.250Z,100
2017-09-22T06:30:00.643Z,100
2017-09-22T06:31:03.036Z,100
2017-09-22T06:32:05.435Z,100
2017-09-22T06:33:07.825Z,100
2017-09-22T06:34:10.205Z,100
2017-09-22T06:35:12.943Z,100
2017-09-22T06:36:15.333Z,100
2017-09-22T06:37:17.728Z,100
2017-09-22T06:38:20.124Z,100
2017-09-22T06:39:22.511Z,100
2017-09-22T06:40:24.901Z,100
2017-09-22T06:41:27.300Z,100
2017-09-22T06:42:29.693Z,100
2017-09-22T06:43:32.080Z,100
2017-09-22T06:44:34.477Z,100
2017-09-22T06:45:36.869Z,100
2017-09-22T06:46:39.262Z,100
2017-09-22T06:47:41.656Z,100
2017-09-22T06:48:44.042Z,100
2017-09-22T06:49:46.434Z,100
2017-09-22T06:50:48.838Z,100
2017-09-22T06:51:51.225Z,100
2017-09-22T06:52:53.955Z,100
2017-09-22T06:53:56.704Z,100
2017-09-22T06:54:59.092Z,100
2017-09-22T06:56:01.496Z,100
2017-09-22T06:57:03.897Z,100
2017-09-22T06:58:06.281Z,100
2017-09-22T06:59:08.677Z,100
2017-09-22T07:00:11.412Z,100
2017-09-22T07:01:13.800Z,100
2017-09-22T07:02:16.194Z,100
2017-09-22T07:03:18.585Z,100
2017-09-22T07:04:21.306Z,100
2017-09-22T07:05:23.700Z,100
2017-09-22T07:06:26.089Z,100
2017-09-22T07:07:28.480Z,100
2017-09-22T07:08:30.883Z,100
2017-09-22T07:09:33.266Z,100
2017-09-22T07:10:36.000Z,100
2017-09-22T07:11:38.399Z,100
2017-09-22T07:12:41.145Z,100
2017-09-22T07:13:43.534Z,100
2017-09-22T07:14:45.921Z,100
2017-09-22T07:15:48.654Z,100
2017-09-22T07:16:51.043Z,100
2017-09-22T07:17:53.438Z,100
2017-09-22T07:18:55.834Z,100
2017-09-22T07:19:58.567Z,100
2017-09-22T07:21:00.963Z,100
2017-09-22T07:22:03.362Z,100
2017-09-22T07:23:05.748Z,100
2017-09-22T07:24:08.147Z,100
2017-09-22T07:25:10.541Z,100
2017-09-22T07:26:12.931Z,100
2017-09-22T07:27:15.328Z,100
2017-09-22T07:28:17.729Z,100
2017-09-22T07:29:20.119Z,100
2017-09-22T07:30:22.516Z,100
2017-09-22T07:31:24.907Z,99
2017-09-22T07:32:27.298Z,99
2017-09-22T07:33:29.697Z,99
2017-09-22T07:34:32.094Z,99
2017-09-22T07:35:34.482Z,99
2017-09-22T07:36:36.883Z,98
2017-09-22T07:37:39.291Z,98
2017-09-22T07:38:41.681Z,98
2017-09-22T07:39:44.406Z,98
2017-09-22T07:40:46.802Z,98
2017-09-22T07:41:49.188Z,97
2017-09-22T07:42:51.598Z,97
2017-09-22T07:43:53.992Z,96
2017-09-22T07:44:56.383Z,97
2017-09-22T07:45:59.481Z,97
2017-09-22T07:47:01.875Z,97
2017-09-22T07:48:04.262Z,96
2017-09-22T07:49:06.663Z,96
2017-09-22T07:50:09.056Z,97
2017-09-22T07:51:11.461Z,97
2017-09-22T07:52:13.852Z,97
2017-09-22T07:53:16.255Z,96
2017-09-22T07:54:18.651Z,96
2017-09-22T07:55:21.046Z,96
2017-09-22T07:56:23.456Z,96
2017-09-22T07:57:25.853Z,95
2017-09-22T07:58:28.243Z,95
2017-09-22T07:59:31.016Z,94
2017-09-22T08:00:33.742Z,93
2017-09-22T08:01:36.146Z,92
2017-09-22T08:02:38.542Z,92
2017-09-22T08:03:40.936Z,91
2017-09-22T08:04:43.337Z,91
2017-09-22T08:05:45.738Z,91
2017-09-22T08:06:48.127Z,91
2017-09-22T08:07:50.529Z,91
2017-09-22T08:08:52.919Z,90
2017-09-22T08:09:55.317Z,90
2017-09-22T08:10:57.716Z,90
2017-09-22T08:12:00.480Z,90
2017-09-22T08:13:02.874Z,90
2017-09-22T08:14:05.280Z,89
2017-09-22T08:15:07.690Z,90
2017-09-22T08:16:10.084Z,90
2017-09-22T08:17:12.483Z,89
2017-09-22T08:18:15.217Z,89
2017-09-22T08:19:17.621Z,88
2017-09-22T08:20:20.023Z,88
2017-09-22T08:21:22.427Z,88
2017-09-22T08:22:24.827Z,88
2017-09-22T08:23:27.233Z,88
2017-09-22T08:24:29.629Z,87
2017-09-22T08:25:32.027Z,87
2017-09-22T08:26:34.429Z,87
2017-09-22T08:27:36.821Z,87
2017-09-22T08:28:39.570Z,88
2017-09-22T08:29:41.972Z,88
2017-09-22T08:30:44.373Z,88
2017-09-22T08:31:46.774Z,88
2017-09-22T08:32:49.186Z,88
2017-09-22T08:33:51.591Z,87
2017-09-22T08:34:53.993Z,86
2017-09-22T08:35:56.403Z,85
2017-09-22T08:36:58.801Z,85
2017-09-22T08:38:01.205Z,85
2017-09-22T08:39:03.612Z,85
2017-09-22T08:40:06.011Z,84
2017-09-22T08:41:08.414Z,84
2017-09-22T08:42:10.822Z,83
2017-09-22T08:43:13.228Z,83
2017-09-22T08:44:15.973Z,83
2017-09-22T08:45:18.722Z,83
2017-09-22T08:46:21.495Z,83
2017-09-22T08:47:23.904Z,83
2017-09-22T08:48:26.321Z,83
2017-09-22T08:49:28.721Z,84
2017-09-22T08:50:31.129Z,83
2017-09-22T08:51:33.545Z,82
2017-09-22T08:52:35.949Z,83
2017-09-22T08:53:38.689Z,82
2017-09-22T08:54:41.098Z,82
2017-09-22T08:55:43.498Z,81
2017-09-22T08:56:45.924Z,82
2017-09-22T08:57:48.333Z,82
2017-09-22T08:58:50.740Z,82
2017-09-22T08:59:53.153Z,81
2017-09-22T09:00:55.566Z,81
2017-09-22T09:01:57.969Z,81
2017-09-22T09:03:00.383Z,80
2017-09-22T09:04:02.789Z,80
2017-09-22T09:05:05.202Z,80
2017-09-22T09:06:07.627Z,80
2017-09-22T09:07:10.028Z,80
2017-09-22T09:08:12.435Z,80
2017-09-22T09:09:15.188Z,80
2017-09-22T09:10:17.600Z,79
2017-09-22T09:11:20.013Z,78
2017-09-22T09:12:22.429Z,78
2017-09-22T09:13:24.832Z,79
2017-09-22T09:14:27.245Z,79
2017-09-22T09:15:29.654Z,77
2017-09-22T09:16:32.073Z,77
2017-09-22T09:17:34.482Z,77
2017-09-22T09:18:36.894Z,77
2017-09-22T09:19:39.308Z,77
2017-09-22T09:20:41.712Z,77
2017-09-22T09:21:44.122Z,76
2017-09-22T09:22:46.540Z,76
2017-09-22T09:23:48.948Z,75
2017-09-22T09:24:51.367Z,74
2017-09-22T09:25:53.789Z,75
2017-09-22T09:26:56.202Z,75
2017-09-22T09:27:58.624Z,75
2017-09-22T09:29:01.033Z,75
2017-09-22T09:30:03.441Z,76
2017-09-22T09:31:05.858Z,77
2017-09-22T09:32:08.264Z,77
2017-09-22T09:33:11.017Z,77
2017-09-22T09:34:13.429Z,76
2017-09-22T09:35:15.847Z,76
2017-09-22T09:36:18.252Z,76
2017-09-22T09:37:20.664Z,75
2017-09-22T09:38:23.072Z,74
2017-09-22T09:39:25.493Z,74
2017-09-22T09:40:27.910Z,72
2017-09-22T09:41:30.321Z,72
2017-09-22T09:42:32.732Z,72
2017-09-22T09:43:35.146Z,71
2017-09-22T09:44:37.548Z,70
2017-09-22T09:45:39.964Z,71
2017-09-22T09:46:42.376Z,71
2017-09-22T09:47:44.782Z,71
2017-09-22T09:48:47.192Z,69
2017-09-22T09:49:49.942Z,68
2017-09-22T09:50:52.359Z,67
2017-09-22T09:51:54.777Z,67
2017-09-22T09:52:57.189Z,67
2017-09-22T09:53:59.928Z,67
2017-09-22T09:55:02.342Z,67
2017-09-22T09:56:04.758Z,68
2017-09-22T09:57:07.169Z,67
2017-09-22T09:58:09.590Z,66
2017-09-22T09:59:12.002Z,65
2017-09-22T10:00:14.413Z,67
2017-09-22T10:01:16.821Z,65
2017-09-22T10:02:19.233Z,63
2017-09-22T10:03:21.646Z,61
2017-09-22T10:04:24.063Z,60
2017-09-22T10:05:26.478Z,60
2017-09-22T10:06:28.890Z,64
2017-09-22T10:07:31.312Z,63
2017-09-22T10:08:33.722Z,63
2017-09-22T10:09:36.139Z,63
2017-09-22T10:10:38.549Z,64
2017-09-22T10:11:40.957Z,62
2017-09-22T10:12:43.375Z,61
2017-09-22T10:13:45.785Z,60
2017-09-22T10:14:48.202Z,60
2017-09-22T10:15:50.611Z,61
2017-09-22T10:16:53.027Z,60
2017-09-22T10:17:55.440Z,62
2017-09-22T10:18:57.852Z,61
2017-09-22T10:20:00.262Z,61
2017-09-22T10:21:02.685Z,60
2017-09-22T10:22:05.098Z,58
2017-09-22T10:23:07.512Z,59
2017-09-22T10:24:10.264Z,60
2017-09-22T10:25:13.013Z,58
2017-09-22T10:26:15.432Z,56
2017-09-22T10:27:17.860Z,56
2017-09-22T10:28:20.262Z,55
2017-09-22T10:29:22.689Z,56
2017-09-22T10:30:25.100Z,56
2017-09-22T10:31:27.507Z,56
2017-09-22T10:32:29.924Z,55
2017-09-22T10:33:32.679Z,55
2017-09-22T10:34:35.097Z,55
2017-09-22T10:35:37.514Z,55
2017-09-22T10:36:39.921Z,54
2017-09-22T10:37:42.678Z,55
2017-09-22T10:38:45.473Z,54
2017-09-22T10:39:47.877Z,54
2017-09-22T10:40:50.292Z,55
2017-09-22T10:41:52.718Z,54
2017-09-22T10:42:55.129Z,55
2017-09-22T10:43:57.545Z,55
2017-09-22T10:44:59.957Z,57
2017-09-22T10:46:02.381Z,57
2017-09-22T10:47:05.144Z,56
2017-09-22T10:48:07.556Z,56
2017-09-22T10:49:09.970Z,57
2017-09-22T10:50:12.385Z,57
2017-09-22T10:51:14.792Z,56
2017-09-22T10:52:17.205Z,57
2017-09-22T10:53:19.613Z,55
2017-09-22T10:54:22.034Z,54
2017-09-22T10:55:24.461Z,55
2017-09-22T10:56:26.878Z,56
2017-09-22T10:57:29.293Z,56
2017-09-22T10:58:31.707Z,56
2017-09-22T10:59:34.125Z,54
2017-09-22T11:00:36.554Z,55
2017-09-22T11:01:38.962Z,56
2017-09-22T11:02:41.375Z,56
2017-09-22T11:03:43.792Z,56
2017-09-22T11:04:46.205Z,57
2017-09-22T11:05:48.627Z,56
2017-09-22T11:06:51.047Z,57
2017-09-22T11:07:53.454Z,57
2017-09-22T11:08:55.877Z,58
2017-09-22T11:09:58.297Z,58
2017-09-22T11:11:00.709Z,58
2017-09-22T11:12:03.486Z,58
2017-09-22T11:13:05.903Z,59
2017-09-22T11:14:08.326Z,59
2017-09-22T11:15:10.742Z,60
2017-09-22T11:16:13.160Z,59
2017-09-22T11:17:15.580Z,58
2017-09-22T11:18:18.009Z,60
2017-09-22T11:19:20.422Z,59
2017-09-22T11:20:22.839Z,58
2017-09-22T11:21:25.243Z,59
2017-09-22T11:22:27.663Z,58
2017-09-22T11:23:30.077Z,57
2017-09-22T11:24:32.496Z,57
2017-09-22T11:25:34.911Z,56
2017-09-22T11:26:37.326Z,57
2017-09-22T11:27:39.731Z,58
2017-09-22T11:28:42.149Z,57
2017-09-22T11:29:44.562Z,54
2017-09-22T11:30:46.978Z,54
2017-09-22T11:31:49.741Z,53
2017-09-22T11:32:52.155Z,52
2017-09-22T11:33:54.553Z,52
2017-09-22T11:34:56.978Z,55
2017-09-22T11:35:59.722Z,55
2017-09-22T11:37:02.140Z,53
2017-09-22T11:38:04.560Z,53
2017-09-22T11:39:06.978Z,51
2017-09-22T11:40:09.391Z,52
2017-09-22T11:41:11.807Z,52
2017-09-22T11:42:14.223Z,50
2017-09-22T11:43:16.626Z,51
2017-09-22T11:44:19.082Z,52
2017-09-22T11:45:21.840Z,51
2017-09-22T11:46:24.256Z,51
2017-09-22T11:47:26.671Z,50
2017-09-22T11:48:29.086Z,51
2017-09-22T11:49:31.502Z,51
2017-09-22T11:50:34.264Z,51
2017-09-22T11:51:37.020Z,51
2017-09-22T11:52:39.431Z,53
2017-09-22T11:53:41.850Z,53
2017-09-22T11:54:44.272Z,51
2017-09-22T11:55:46.691Z,52
2017-09-22T11:56:49.106Z,53
2017-09-22T11:57:51.514Z,51
2017-09-22T11:58:54.263Z,51
2017-09-22T11:59:56.686Z,49
2017-09-22T12:00:59.440Z,50
2017-09-22T12:02:01.852Z,49
2017-09-22T12:03:04.269Z,50
2017-09-22T12:04:06.688Z,50
2017-09-22T12:05:09.102Z,51
2017-09-22T12:06:11.524Z,52
2017-09-22T12:07:13.940Z,50
2017-09-22T12:08:16.709Z,50
2017-09-22T12:09:19.122Z,49
2017-09-22T12:10:21.538Z,50
2017-09-22T12:11:23.949Z,49
2017-09-22T12:12:26.364Z,49
2017-09-22T12:13:28.782Z,49
2017-09-22T12:14:31.196Z,50
2017-09-22T12:15:33.612Z,50
2017-09-22T12:16:36.036Z,50
2017-09-22T12:17:38.458Z,50
2017-09-22T12:18:40.882Z,51
2017-09-22T12:19:43.325Z,52
2017-09-22T12:20:45.753Z,52
2017-09-22T12:21:48.388Z,51
2017-09-22T12:22:50.819Z,51
2017-09-22T12:23:53.405Z,52
2017-09-22T12:24:55.832Z,52
2017-09-22T12:25:58.293Z,51
2017-09-22T12:27:00.710Z,52
2017-09-22T12:28:03.127Z,53
2017-09-22T12:29:05.569Z,52
2017-09-22T12:30:07.994Z,53
2017-09-22T12:31:10.430Z,54
2017-09-22T12:32:12.862Z,55
2017-09-22T12:33:15.279Z,53
2017-09-22T12:34:17.705Z,54
2017-09-22T12:35:20.126Z,55
2017-09-22T12:36:22.556Z,52
2017-09-22T12:37:24.978Z,51
2017-09-22T12:38:27.755Z,51
2017-09-22T12:39:30.221Z,50
2017-09-22T12:40:32.683Z,50
2017-09-22T12:41:35.315Z,51
2017-09-22T12:42:38.532Z,52
2017-09-22T12:43:41.077Z,51
2017-09-22T12:44:43.513Z,50
2017-09-22T12:45:45.995Z,50
2017-09-22T12:46:48.464Z,50
2017-09-22T12:47:50.983Z,51
2017-09-22T12:48:53.778Z,53
2017-09-22T12:49:56.220Z,53
2017-09-22T12:50:58.701Z,53
2017-09-22T12:52:01.177Z,55
2017-09-22T12:53:03.603Z,53
2017-09-22T12:54:06.171Z,53
2017-09-22T12:55:08.638Z,52
2017-09-22T12:56:11.114Z,52
2017-09-22T12:57:13.725Z,54
2017-09-22T12:58:16.171Z,54
2017-09-22T12:59:18.578Z,53
2017-09-22T13:00:21.345Z,54
2017-09-22T13:01:23.779Z,54
2017-09-22T13:02:26.204Z,54
2017-09-22T13:03:28.644Z,56
2017-09-22T13:04:31.059Z,55
2017-09-22T13:05:33.490Z,54
2017-09-22T13:06:35.931Z,53
2017-09-22T13:07:38.352Z,54
2017-09-22T13:08:40.777Z,55
2017-09-22T13:09:43.202Z,53
2017-09-22T13:10:45.617Z,52
2017-09-22T13:11:48.381Z,51
2017-09-22T13:12:50.789Z,50
2017-09-22T13:13:53.206Z,52
2017-09-22T13:14:55.619Z,53
2017-09-22T13:15:58.020Z,54
2017-09-22T13:17:00.438Z,52
2017-09-22T13:18:03.195Z,51
2017-09-22T13:19:05.605Z,51
2017-09-22T13:20:08.024Z,50
2017-09-22T13:21:10.435Z,50
2017-09-22T13:22:12.857Z,51
2017-09-22T13:23:15.283Z,49
2017-09-22T13:24:17.707Z,49
2017-09-22T13:25:20.124Z,49
2017-09-22T13:26:22.886Z,48
2017-09-22T13:27:25.298Z,49
2017-09-22T13:28:27.713Z,50
2017-09-22T13:29:30.128Z,50
2017-09-22T13:30:32.533Z,50
2017-09-22T13:31:34.946Z,50
2017-09-22T13:32:37.366Z,50
2017-09-22T13:33:39.777Z,52
2017-09-22T13:34:42.193Z,52
2017-09-22T13:35:45.294Z,51
2017-09-22T13:36:48.056Z,49
2017-09-22T13:37:50.821Z,50
2017-09-22T13:38:53.234Z,52
2017-09-22T13:39:55.982Z,54
2017-09-22T13:40:58.396Z,54
2017-09-22T13:42:00.830Z,52
2017-09-22T13:43:03.260Z,53
2017-09-22T13:44:05.672Z,54
2017-09-22T13:45:08.083Z,54
2017-09-22T13:46:10.509Z,52
2017-09-22T13:47:13.259Z,50
2017-09-22T13:48:15.676Z,50
2017-09-22T13:49:18.094Z,50
2017-09-22T13:50:20.498Z,51
2017-09-22T13:51:23.271Z,51
2017-09-22T13:52:25.691Z,52
2017-09-22T13:53:28.100Z,52
2017-09-22T13:54:30.860Z,53
2017-09-22T13:55:33.282Z,52
2017-09-22T13:56:35.692Z,53
2017-09-22T13:57:38.117Z,52
2017-09-22T13:58:40.529Z,50
2017-09-22T13:59:42.947Z,51
2017-09-22T14:00:45.361Z,50
2017-09-22T14:01:47.773Z,52
2017-09-22T14:02:50.531Z,52
2017-09-22T14:03:52.946Z,52
2017-09-22T14:04:55.364Z,53
2017-09-22T14:05:57.782Z,52
2017-09-22T14:07:00.198Z,53
2017-09-22T14:08:02.611Z,53
2017-09-22T14:09:05.019Z,53
2017-09-22T14:10:07.771Z,54
2017-09-22T14:11:10.184Z,55
2017-09-22T14:12:12.603Z,55
2017-09-22T14:13:15.012Z,56
2017-09-22T14:14:17.429Z,56
2017-09-22T14:15:19.833Z,57
2017-09-22T14:16:22.246Z,57
2017-09-22T14:17:24.668Z,57
2017-09-22T14:18:27.091Z,58
2017-09-22T14:19:29.505Z,58
2017-09-22T14:20:31.912Z,58
2017-09-22T14:21:34.321Z,58
2017-09-22T14:22:36.746Z,58
2017-09-22T14:23:39.162Z,60
2017-09-22T14:24:41.572Z,60
2017-09-22T14:25:43.984Z,61
2017-09-22T14:26:46.398Z,60
2017-09-22T14:27:48.805Z,59
2017-09-22T14:28:51.221Z,61
2017-09-22T14:29:53.628Z,61
2017-09-22T14:30:56.044Z,61
2017-09-22T14:31:58.459Z,61
2017-09-22T14:33:00.879Z,60
2017-09-22T14:34:03.300Z,60
2017-09-22T14:35:06.045Z,59